createdAt,value
2018-04-10T00:01:38.510Z,18.07
2018-04-10T00:04:14.170Z,17.87
2018-04-10T00:06:49.174Z,17.47
2018-04-10T00:09:29.792Z,17.90
2018-04-10T00:12:04.309Z,16.77
2018-04-10T00:14:39.673Z,17.13
2018-04-10T00:17:14.650Z,18.97
2018-04-10T00:19:49.342Z,18.07
2018-04-10T00:22:24.327Z,18.07
2018-04-10T00:24:59.770Z,19.57
2018-04-10T00:27:36.792Z,18.57
2018-04-10T00:30:12.314Z,16.40
2018-04-10T00:32:47.104Z,16.53
2018-04-10T00:35:22.639Z,17.70
2018-04-10T00:38:00.110Z,16.60
2018-04-10T00:40:35.228Z,16.87
2018-04-10T00:43:09.725Z,17.10
2018-04-10T00:45:45.622Z,16.80
2018-04-10T00:48:20.281Z,18.00
2018-04-10T00:50:54.804Z,16.77
2018-04-10T00:53:37.777Z,16.30
2018-04-10T00:56:12.408Z,16.53
2018-04-10T00:58:47.018Z,16.67
2018-04-10T01:01:22.075Z,15.90
2018-04-10T01:03:56.797Z,16.53
2018-04-10T01:06:31.702Z,16.57
2018-04-10T01:09:12.196Z,16.60
2018-04-10T01:11:47.388Z,20.43
2018-04-10T01:14:22.403Z,18.67
2018-04-10T01:16:56.945Z,17.83
2018-04-10T01:19:31.331Z,16.50
2018-04-10T01:22:06.224Z,15.90
2018-04-10T01:24:41.962Z,17.77
2018-04-10T01:27:16.588Z,17.37
2018-04-10T01:29:51.273Z,17.47
2018-04-10T01:32:26.812Z,18.60
2018-04-10T01:35:01.323Z,16.33
2018-04-10T01:37:36.718Z,17.97
2018-04-10T01:40:11.565Z,17.10
2018-04-10T01:42:46.674Z,18.77
2018-04-10T01:45:21.429Z,19.73
2018-04-10T01:47:56.009Z,19.00
2018-04-10T01:50:31.115Z,18.77
2018-04-10T01:53:06.682Z,18.70
2018-04-10T01:55:41.664Z,17.50
2018-04-10T01:58:17.618Z,16.20
2018-04-10T02:00:52.314Z,17.17
2018-04-10T02:03:26.913Z,16.83
2018-04-10T02:06:02.235Z,15.63
2018-04-10T02:08:36.960Z,16.63
2018-04-10T02:11:13.413Z,17.57
2018-04-10T02:13:48.712Z,16.67
2018-04-10T02:16:25.500Z,16.10
2018-04-10T02:19:00.327Z,16.80
2018-04-10T02:21:37.861Z,16.70
2018-04-10T02:24:12.748Z,16.97
2018-04-10T02:26:47.353Z,16.50
2018-04-10T02:29:22.441Z,17.27
2018-04-10T02:31:57.097Z,18.30
2018-04-10T02:34:34.099Z,18.63
2018-04-10T02:37:10.148Z,19.20
2018-04-10T02:39:44.902Z,18.63
2018-04-10T02:42:19.380Z,18.60
2018-04-10T02:44:54.244Z,17.70
2018-04-10T02:47:28.751Z,19.00
2018-04-10T02:50:03.392Z,17.87
2018-04-10T02:52:38.160Z,18.87
2018-04-10T02:55:13.789Z,18.83
2018-04-10T02:57:48.408Z,19.17
2018-04-10T03:00:22.929Z,17.07
2018-04-10T03:02:58.228Z,17.93
2018-04-10T03:05:32.792Z,17.27
2018-04-10T03:08:07.724Z,18.43
2018-04-10T03:10:42.963Z,20.00
2018-04-10T03:13:18.863Z,19.50
2018-04-10T03:15:54.656Z,18.20
2018-04-10T03:18:36.692Z,16.60
2018-04-10T03:21:11.600Z,17.60
2018-04-10T03:23:46.641Z,19.03
2018-04-10T03:26:21.436Z,19.40
2018-04-10T03:29:05.185Z,19.30
2018-04-10T03:31:40.856Z,19.63
2018-04-10T03:34:15.690Z,19.30
2018-04-10T03:36:50.752Z,20.00
2018-04-10T03:39:25.731Z,22.03
2018-04-10T03:42:02.021Z,22.80
2018-04-10T03:44:38.240Z,20.97
2018-04-10T03:47:13.044Z,20.47
2018-04-10T03:49:48.158Z,19.27
2018-04-10T03:52:23.207Z,17.63
2018-04-10T03:54:59.360Z,18.27
2018-04-10T03:57:35.999Z,18.47
2018-04-10T04:00:10.560Z,19.90
2018-04-10T04:02:46.172Z,22.53
2018-04-10T04:05:21.173Z,21.07
2018-04-10T04:08:00.700Z,18.97
2018-04-10T04:10:35.686Z,20.33
2018-04-10T04:13:10.748Z,19.57
2018-04-10T04:15:46.144Z,18.90
2018-04-10T04:18:29.550Z,17.87
2018-04-10T04:23:20.514Z,19.20
2018-04-10T04:25:57.157Z,17.63
2018-04-10T04:28:32.242Z,17.70
2018-04-10T04:31:08.198Z,19.90
2018-04-10T04:33:43.261Z,19.13
2018-04-10T04:36:18.770Z,20.27
2018-04-10T04:38:54.904Z,19.27
2018-04-10T04:41:30.644Z,19.33
2018-04-10T04:44:05.366Z,19.70
2018-04-10T04:46:40.513Z,21.33
2018-04-10T04:49:15.847Z,19.87
2018-04-10T04:51:52.115Z,19.00
2018-04-10T04:54:27.370Z,19.50
2018-04-10T04:57:03.386Z,21.20
2018-04-10T04:59:38.269Z,20.03
2018-04-10T05:02:14.139Z,21.87
2018-04-10T05:04:48.966Z,20.47
2018-04-10T05:07:24.377Z,19.17
2018-04-10T05:09:59.908Z,18.67
2018-04-10T05:12:44.951Z,20.03
2018-04-10T05:15:20.043Z,19.93
2018-04-10T05:17:59.088Z,18.37
2018-04-10T05:20:38.501Z,17.70
2018-04-10T05:23:19.626Z,20.23
2018-04-10T05:25:55.358Z,21.37
2018-04-10T05:28:31.895Z,21.00
2018-04-10T05:31:08.563Z,20.07
2018-04-10T05:33:44.804Z,19.37
2018-04-10T05:36:20.244Z,20.73
2018-04-10T05:38:55.784Z,18.93
2018-04-10T05:41:30.574Z,18.77
2018-04-10T05:44:06.302Z,21.00
2018-04-10T05:46:42.879Z,21.93
2018-04-10T05:49:21.644Z,22.10
2018-04-10T05:52:00.733Z,23.30
2018-04-10T05:54:41.704Z,20.90
2018-04-10T05:57:17.911Z,18.90
2018-04-10T05:59:54.400Z,22.90
2018-04-10T06:02:33.479Z,23.33
2018-04-10T06:05:11.876Z,21.00
2018-04-10T06:07:47.029Z,20.27
2018-04-10T13:36:16.206Z,2.10
2018-04-10T13:38:53.732Z,2.20
2018-04-10T13:41:28.611Z,2.40
2018-04-10T13:44:05.251Z,2.30
2018-04-10T13:46:42.050Z,2.50
2018-04-10T13:49:19.194Z,2.47
2018-04-10T13:51:54.675Z,2.10
2018-04-10T13:54:28.456Z,2.40
2018-04-10T13:57:02.869Z,2.00
2018-04-10T13:59:39.204Z,2.37
2018-04-10T14:02:19.233Z,2.10
2018-04-10T14:05:02.425Z,2.20
2018-04-10T14:07:42.726Z,2.00
2018-04-10T14:10:17.755Z,2.00
2018-04-10T14:12:51.310Z,2.20
2018-04-10T14:15:25.529Z,2.10
2018-04-10T14:18:00.049Z,1.63
2018-04-10T14:20:34.543Z,1.80
2018-04-10T14:23:11.768Z,2.13
2018-04-10T14:25:49.081Z,2.00
2018-04-10T14:28:24.681Z,2.30
2018-04-10T14:30:59.467Z,1.33
2018-04-10T14:33:33.332Z,1.67
2018-04-10T14:36:07.098Z,1.80
2018-04-10T14:38:42.690Z,1.90
2018-04-10T14:41:17.016Z,1.77
2018-04-10T14:43:59.139Z,1.67
2018-04-10T14:46:35.008Z,1.70
2018-04-10T14:49:10.790Z,2.10
2018-04-10T14:51:44.967Z,1.70
2018-04-10T14:54:22.212Z,1.70
2018-04-10T14:56:57.856Z,1.67
2018-04-10T14:59:33.341Z,1.70
2018-04-10T15:02:10.513Z,2.00
2018-04-10T15:04:45.722Z,1.80
2018-04-10T15:07:19.220Z,2.37
2018-04-10T15:09:54.295Z,1.70
2018-04-10T15:12:29.777Z,1.70
2018-04-10T15:15:03.836Z,1.83
2018-04-10T15:17:38.151Z,1.47
2018-04-10T15:20:12.917Z,1.70
2018-04-10T15:22:47.915Z,1.63
2018-04-10T15:25:23.473Z,1.83
2018-04-10T15:27:59.471Z,1.73
2018-04-10T15:30:37.546Z,1.77
2018-04-10T15:33:12.614Z,1.87
2018-04-10T15:35:48.368Z,1.97
2018-04-10T15:38:21.794Z,1.30
2018-04-10T15:40:55.929Z,1.90
2018-04-10T15:43:31.367Z,2.07
2018-04-10T15:46:05.171Z,1.60
2018-04-10T15:48:38.946Z,1.53
2018-04-10T15:51:13.572Z,1.70
2018-04-10T15:53:47.916Z,1.60
2018-04-10T15:56:22.119Z,1.53
2018-04-10T15:58:55.808Z,1.83
2018-04-10T16:01:31.021Z,1.93
2018-04-10T16:04:04.956Z,1.63
2018-04-10T16:06:38.609Z,1.70
2018-04-10T16:09:15.700Z,1.70
2018-04-10T16:11:49.738Z,1.60
2018-04-10T16:14:23.729Z,1.60
2018-04-10T16:16:57.860Z,1.70
2018-04-10T16:19:32.653Z,2.00
2018-04-10T16:22:06.660Z,1.93
2018-04-10T16:24:40.286Z,1.90
2018-04-10T16:27:15.323Z,1.70
2018-04-10T16:29:51.238Z,1.73
2018-04-10T16:32:27.657Z,1.50
2018-04-10T16:35:02.481Z,1.70
2018-04-10T16:37:36.616Z,1.67
2018-04-10T16:40:10.787Z,2.03
2018-04-10T16:42:44.547Z,1.73
2018-04-10T16:45:18.708Z,1.80
2018-04-10T16:48:00.624Z,1.73
2018-04-10T16:50:35.370Z,1.83
2018-04-10T16:53:08.770Z,1.70
2018-04-10T16:55:43.762Z,1.90
2018-04-10T16:58:18.447Z,1.80
2018-04-10T17:00:52.237Z,1.90
2018-04-10T17:03:25.666Z,1.70
2018-04-10T17:05:59.344Z,1.80
2018-04-10T17:08:32.969Z,1.83
2018-04-10T17:11:06.437Z,1.70
2018-04-10T17:13:41.558Z,2.03
2018-04-10T17:16:15.486Z,2.03
2018-04-10T17:18:48.898Z,2.03
2018-04-10T17:21:22.421Z,2.27
2018-04-10T17:23:55.861Z,1.90
2018-04-10T17:26:29.473Z,1.90
2018-04-10T17:29:03.697Z,1.87
2018-04-10T17:31:37.631Z,1.80
2018-04-10T17:34:11.116Z,1.77
2018-04-10T17:36:44.568Z,2.13
2018-04-10T17:39:18.157Z,1.60
2018-04-10T17:41:51.606Z,2.33
2018-04-10T17:44:25.181Z,1.53
2018-04-10T17:46:58.752Z,1.90
2018-04-10T17:49:32.156Z,1.90
2018-04-10T17:52:05.576Z,1.70
2018-04-10T17:54:38.967Z,1.70
2018-04-10T17:57:12.305Z,2.00
2018-04-10T18:02:19.133Z,1.80
2018-04-10T18:07:57.116Z,1.80
2018-04-10T18:10:36.372Z,1.87
2018-04-10T18:13:12.239Z,1.60
2018-04-10T18:15:49.277Z,1.60
2018-04-10T18:18:42.212Z,1.80
2018-04-10T18:24:11.096Z,1.60
2018-04-10T18:26:55.770Z,1.63
2018-04-10T18:29:37.108Z,1.80
2018-04-10T18:32:14.918Z,1.60
2018-04-10T18:37:56.636Z,1.87
2018-04-10T18:40:35.796Z,1.50
2018-04-10T18:43:24.044Z,1.67
2018-04-10T18:46:01.489Z,1.53
2018-04-10T18:48:37.741Z,1.70
2018-04-10T18:51:16.915Z,1.93
2018-04-10T18:53:54.341Z,1.80
2018-04-10T18:56:29.921Z,1.90
2018-04-10T18:59:16.242Z,1.60
2018-04-10T19:01:58.042Z,1.90
2018-04-10T19:04:35.672Z,1.70
2018-04-10T19:07:16.374Z,1.70
2018-04-10T19:09:54.019Z,2.00
2018-04-10T19:12:54.816Z,1.57
2018-04-10T19:15:45.712Z,1.60
2018-04-10T19:18:34.094Z,1.70
2018-04-10T19:21:17.109Z,1.93
2018-04-10T19:26:39.486Z,1.53
2018-04-10T19:29:29.295Z,1.73
2018-04-10T19:32:17.734Z,1.93
2018-04-10T19:34:54.778Z,1.70
2018-04-10T19:37:30.073Z,2.20
2018-04-10T19:40:08.850Z,1.60
2018-04-10T19:42:46.113Z,2.37
2018-04-10T19:45:23.591Z,2.03
2018-04-10T19:48:01.871Z,2.10
2018-04-10T19:50:41.359Z,2.07
2018-04-10T19:53:25.055Z,1.90
2018-04-10T19:55:58.953Z,2.23
2018-04-10T19:58:32.593Z,2.10
2018-04-10T20:01:10.029Z,1.80
2018-04-10T20:03:43.649Z,1.83
2018-04-10T20:06:17.166Z,2.07
2018-04-10T20:08:50.479Z,1.83
2018-04-10T20:11:24.891Z,1.90
2018-04-10T20:13:58.362Z,2.00
2018-04-10T20:16:31.748Z,1.90
2018-04-10T20:19:05.337Z,1.90
2018-04-10T20:21:38.829Z,2.10
2018-04-10T20:24:12.148Z,2.20
2018-04-10T20:26:45.536Z,1.87
2018-04-10T20:29:19.021Z,2.07
2018-04-10T20:31:52.532Z,1.50
2018-04-10T20:34:26.182Z,1.90
2018-04-10T20:36:59.493Z,1.77
2018-04-10T20:39:33.857Z,1.80
2018-04-10T20:42:07.455Z,1.50
2018-04-10T20:44:44.507Z,1.70
2018-04-10T20:47:18.004Z,1.83
2018-04-10T20:49:51.632Z,1.90
2018-04-10T20:52:25.222Z,1.90
2018-04-10T20:54:58.479Z,1.90
2018-04-10T20:57:32.695Z,1.60
2018-04-10T21:00:06.271Z,1.80
2018-04-10T21:02:39.897Z,1.80
2018-04-10T21:05:13.066Z,1.97
2018-04-10T21:07:46.696Z,1.83
2018-04-10T21:10:20.184Z,1.90
2018-04-10T21:12:53.391Z,2.23
2018-04-10T21:15:26.890Z,2.00
2018-04-10T21:18:00.277Z,2.03
2018-04-10T21:20:33.401Z,2.00
2018-04-10T21:23:06.804Z,2.00
2018-04-10T21:25:40.178Z,1.60
2018-04-10T21:28:13.512Z,2.00
2018-04-10T21:30:46.980Z,1.90
2018-04-10T21:33:20.153Z,1.87
2018-04-10T21:35:53.701Z,1.83
2018-04-10T21:38:27.061Z,2.07
2018-04-10T21:41:00.276Z,2.10
2018-04-10T21:43:34.802Z,1.93
2018-04-10T21:46:08.072Z,1.80
2018-04-10T21:48:41.328Z,1.63
2018-04-10T21:51:15.169Z,1.90
2018-04-10T21:53:48.648Z,2.30
2018-04-10T21:56:21.884Z,2.10
2018-04-10T21:58:55.646Z,2.40
2018-04-10T22:01:29.153Z,1.80
2018-04-10T22:04:02.418Z,1.60
2018-04-10T22:06:36.464Z,2.07
2018-04-10T22:09:09.968Z,2.00
2018-04-10T22:11:45.267Z,2.10
2018-04-10T22:14:18.973Z,2.30
2018-04-10T22:16:52.590Z,2.30
2018-04-10T22:19:25.990Z,2.10
2018-04-10T22:21:59.288Z,2.23
2018-04-10T22:24:32.621Z,2.50
2018-04-10T22:27:06.350Z,2.33
2018-04-10T22:29:39.652Z,2.40
2018-04-10T22:32:13.323Z,2.30
2018-04-10T22:34:46.587Z,2.30
2018-04-10T22:37:19.937Z,2.37
2018-04-10T22:39:56.820Z,2.30
2018-04-10T22:42:32.698Z,2.43
2018-04-10T22:45:11.664Z,2.73
2018-04-10T22:47:45.711Z,2.00
2018-04-10T22:50:19.613Z,2.43
2018-04-10T22:52:52.898Z,2.57
2018-04-10T22:55:26.301Z,2.80
2018-04-10T22:57:59.921Z,2.60
2018-04-10T23:00:33.895Z,2.97
2018-04-10T23:03:06.854Z,2.30
2018-04-10T23:05:40.858Z,2.27
2018-04-10T23:08:14.230Z,2.43
2018-04-10T23:10:47.604Z,2.60
2018-04-10T23:13:21.970Z,2.50
2018-04-10T23:15:55.652Z,2.90
2018-04-10T23:18:29.034Z,2.60
2018-04-10T23:21:02.560Z,2.73
2018-04-10T23:23:35.885Z,2.90
2018-04-10T23:26:09.181Z,2.80
2018-04-10T23:28:43.094Z,2.40
2018-04-10T23:31:17.406Z,2.30
2018-04-10T23:33:50.884Z,2.10
2018-04-10T23:36:24.390Z,2.30
2018-04-10T23:38:57.614Z,2.20
2018-04-10T23:41:31.137Z,2.23
2018-04-10T23:44:04.620Z,2.17
2018-04-10T23:46:37.944Z,2.30
2018-04-10T23:49:11.390Z,2.40
2018-04-10T23:51:44.786Z,2.47
2018-04-10T23:54:18.122Z,2.30
2018-04-10T23:56:51.464Z,2.30
2018-04-10T23:59:25.033Z,2.70
